createdAt,value
2019-04-14T00:00:38.975Z,16.93
2019-04-14T00:03:19.299Z,16.30
2019-04-14T00:05:52.272Z,17.93
2019-04-14T00:08:24.059Z,16.60
2019-04-14T00:10:55.084Z,18.43
2019-04-14T00:13:26.494Z,17.13
2019-04-14T00:15:57.151Z,16.80
2019-04-14T00:18:29.441Z,17.30
2019-04-14T00:21:00.270Z,15.93
2019-04-14T00:23:32.651Z,15.77
2019-04-14T00:26:31.946Z,16.60
2019-04-14T00:29:04.459Z,16.57
2019-04-14T00:31:37.024Z,16.43
2019-04-14T00:34:31.012Z,18.10
2019-04-14T00:37:20.548Z,16.77
2019-04-14T00:39:53.288Z,18.07
2019-04-14T00:42:43.044Z,16.13
2019-04-14T00:45:34.025Z,16.47
2019-04-14T00:48:11.811Z,16.87
2019-04-14T00:50:40.913Z,15.87
2019-04-14T00:53:12.069Z,17.20
2019-04-14T00:55:42.969Z,15.53
2019-04-14T00:58:13.509Z,16.67
2019-04-14T01:00:45.159Z,15.83
2019-04-14T01:03:15.812Z,15.83
2019-04-14T01:05:48.112Z,15.80
2019-04-14T01:08:18.904Z,17.10
2019-04-14T01:10:49.829Z,16.50
2019-04-14T01:13:20.536Z,15.67
2019-04-14T01:15:58.676Z,15.43
2019-04-14T01:18:25.421Z,15.70
2019-04-14T01:20:56.035Z,16.70
2019-04-14T01:23:28.297Z,17.47
2019-04-14T01:25:59.001Z,17.20
2019-04-14T01:28:30.713Z,18.07
2019-04-14T01:31:01.280Z,16.80
2019-04-14T01:33:31.747Z,17.83
2019-04-14T01:36:02.429Z,17.87
2019-04-14T01:38:34.242Z,17.70
2019-04-14T01:41:04.821Z,17.67
2019-04-14T01:43:36.389Z,17.40
2019-04-14T01:46:14.604Z,17.03
2019-04-14T01:48:39.308Z,17.20
2019-04-14T01:51:46.902Z,16.87
2019-04-14T01:54:36.661Z,16.07
2019-04-14T01:57:26.347Z,17.20
2019-04-14T01:59:58.882Z,16.97
2019-04-14T02:02:29.624Z,17.90
2019-04-14T02:05:00.084Z,15.80
2019-04-14T02:07:31.901Z,17.00
2019-04-14T02:10:03.914Z,18.23
2019-04-14T02:12:34.556Z,16.40
2019-04-14T02:15:05.353Z,18.07
2019-04-14T02:17:37.022Z,16.43
2019-04-14T02:20:09.929Z,17.17
2019-04-14T02:22:41.872Z,15.20
2019-04-14T02:25:12.614Z,15.57
2019-04-14T02:27:43.451Z,16.37
2019-04-14T02:30:19.548Z,14.37
2019-04-14T02:33:13.599Z,15.47
2019-04-14T02:35:45.479Z,16.17
2019-04-14T02:38:23.332Z,17.70
2019-04-14T02:40:55.559Z,16.10
2019-04-14T02:43:41.671Z,16.33
2019-04-14T02:48:36.131Z,18.87
2019-04-14T02:51:01.943Z,18.50
2019-04-14T02:53:34.279Z,19.10
2019-04-14T02:56:11.543Z,18.17
2019-04-14T02:58:51.952Z,18.87
2019-04-14T03:01:14.642Z,18.50
2019-04-14T03:03:41.696Z,19.90
2019-04-14T03:11:21.220Z,20.00
2019-04-14T03:16:23.334Z,17.57
2019-04-14T03:19:19.766Z,20.00
2019-04-14T03:22:12.582Z,19.73
2019-04-14T03:24:37.547Z,22.57
2019-04-14T03:30:39.045Z,20.80
2019-04-14T03:35:58.819Z,21.50
2019-04-14T03:37:52.565Z,20.10
2019-04-14T03:40:28.036Z,21.00
2019-04-14T03:43:03.956Z,20.60
2019-04-14T03:45:39.434Z,20.70
2019-04-14T03:50:31.371Z,20.97
2019-04-14T03:53:15.869Z,20.03
2019-04-14T03:55:55.375Z,19.93
2019-04-14T03:58:22.611Z,20.00
2019-04-14T04:00:53.424Z,21.30
2019-04-14T04:03:23.980Z,21.37
2019-04-14T04:05:54.692Z,18.70
2019-04-14T04:08:25.315Z,18.70
2019-04-14T04:10:57.499Z,23.07
2019-04-14T04:13:28.152Z,21.97
2019-04-14T04:16:13.797Z,21.80
2019-04-14T04:18:56.219Z,21.53
2019-04-14T04:21:26.996Z,22.33
2019-04-14T04:24:02.142Z,22.13
2019-04-14T04:26:58.189Z,23.43
2019-04-14T04:29:48.443Z,20.27
2019-04-14T04:32:38.606Z,22.23
2019-04-14T04:35:13.148Z,20.77
2019-04-14T04:38:11.787Z,21.97
2019-04-14T04:40:42.478Z,21.00
2019-04-14T04:43:12.973Z,17.73
2019-04-14T04:45:43.427Z,20.43
2019-04-14T04:48:17.311Z,22.03
2019-04-14T04:50:47.908Z,20.50
2019-04-14T04:53:18.437Z,18.90
2019-04-14T04:55:48.891Z,19.37
2019-04-14T04:58:19.583Z,19.03
2019-04-14T05:00:52.513Z,20.13
2019-04-14T05:03:23.323Z,17.53
2019-04-14T05:06:48.339Z,20.00
2019-04-14T05:09:56.143Z,18.53
2019-04-14T05:12:41.326Z,17.43
2019-04-14T05:15:40.284Z,19.47
2019-04-14T05:18:33.588Z,18.90
2019-04-14T05:21:04.030Z,21.07
2019-04-14T05:23:34.435Z,18.83
2019-04-14T05:26:05.140Z,19.67
2019-04-14T05:28:35.591Z,20.17
2019-04-14T05:31:06.064Z,19.10
2019-04-14T05:33:36.488Z,19.80
2019-04-14T05:36:06.988Z,21.47
2019-04-14T05:38:38.522Z,21.27
2019-04-14T05:41:09.341Z,19.60
2019-04-14T05:43:47.078Z,19.73
2019-04-14T05:46:12.141Z,19.43
2019-04-14T05:48:42.664Z,19.07
2019-04-14T05:51:13.177Z,20.90
2019-04-14T05:53:43.867Z,19.50
2019-04-14T05:56:14.597Z,21.07
2019-04-14T05:58:45.062Z,20.17
2019-04-14T06:01:16.121Z,19.17
2019-04-14T06:03:47.498Z,19.60
2019-04-14T06:06:18.179Z,19.57
2019-04-14T06:08:48.682Z,21.00
2019-04-14T06:11:19.213Z,19.73
2019-04-14T06:13:49.637Z,18.97
2019-04-14T06:16:20.257Z,19.53
2019-04-14T06:18:50.745Z,19.70
2019-04-14T06:21:21.212Z,18.87
2019-04-14T06:23:51.674Z,18.60
2019-04-14T06:26:22.386Z,19.90
2019-04-14T06:28:52.998Z,18.30
2019-04-14T06:31:51.579Z,18.10
2019-04-14T06:34:40.911Z,19.00
2019-04-14T06:37:24.435Z,18.53
2019-04-14T06:39:54.917Z,17.20
2019-04-14T06:42:25.593Z,16.87
2019-04-14T06:44:56.044Z,16.30
2019-04-14T06:47:26.576Z,16.90
2019-04-14T06:49:57.046Z,17.10
2019-04-14T06:52:27.660Z,16.40
2019-04-14T06:54:58.423Z,16.00
2019-04-14T06:57:29.102Z,16.80
2019-04-14T06:59:59.586Z,14.93
2019-04-14T07:02:30.360Z,15.50
2019-04-14T07:05:00.867Z,16.70
2019-04-14T07:07:31.611Z,15.90
2019-04-14T07:10:02.197Z,14.63
2019-04-14T07:12:33.003Z,13.37
2019-04-14T07:15:03.698Z,14.50
2019-04-14T07:17:34.517Z,13.90
2019-04-14T07:20:06.194Z,14.33
2019-04-14T07:22:36.744Z,14.03
2019-04-14T07:25:07.333Z,13.97
2019-04-14T07:27:37.819Z,14.10
2019-04-14T07:30:46.761Z,14.83
2019-04-14T07:33:36.394Z,14.43
2019-04-14T07:36:31.911Z,13.60
2019-04-14T07:39:19.969Z,13.40
2019-04-14T07:42:21.567Z,14.20
2019-04-14T07:45:11.039Z,14.30
2019-04-14T07:48:15.717Z,11.60
2019-04-14T07:51:14.435Z,12.67
2019-04-14T07:53:54.592Z,13.57
2019-04-14T07:56:46.829Z,13.57
2019-04-14T07:59:29.107Z,12.93
2019-04-14T08:02:21.618Z,12.30
2019-04-14T08:05:00.213Z,13.47
2019-04-14T08:07:30.740Z,13.93
2019-04-14T08:10:01.397Z,13.50
2019-04-14T08:12:31.923Z,14.63
2019-04-14T08:15:02.420Z,12.90
2019-04-14T08:17:32.975Z,12.83
2019-04-14T08:20:11.908Z,12.50
2019-04-14T08:22:53.435Z,12.50
2019-04-14T08:25:23.950Z,13.23
2019-04-14T08:27:54.421Z,13.27
2019-04-14T08:30:24.998Z,12.80
2019-04-14T08:32:55.761Z,12.17
2019-04-14T08:35:26.599Z,13.30
2019-04-14T08:37:57.666Z,13.60
2019-04-14T08:40:28.378Z,12.93
2019-04-14T08:43:11.410Z,11.87
2019-04-14T08:46:03.635Z,11.63
2019-04-14T08:48:51.587Z,11.80
2019-04-14T08:51:38.666Z,12.63
2019-04-14T08:54:28.083Z,12.17
2019-04-14T08:57:07.471Z,12.30
2019-04-14T08:59:57.566Z,14.03
2019-04-14T09:02:44.486Z,11.80
2019-04-14T09:05:35.319Z,12.33
2019-04-14T09:08:28.310Z,11.70
2019-04-14T09:11:00.979Z,11.53
2019-04-14T09:13:31.869Z,12.03
2019-04-14T09:16:02.695Z,11.97
2019-04-14T09:18:33.534Z,10.70
2019-04-14T09:21:04.873Z,11.07
2019-04-14T09:23:36.216Z,13.35
2019-04-14T09:26:06.678Z,12.27
2019-04-14T09:28:37.208Z,10.67
2019-04-14T09:31:07.767Z,11.53
2019-04-14T09:33:40.233Z,10.40
2019-04-14T09:36:10.775Z,11.87
2019-04-14T09:38:41.216Z,11.10
2019-04-14T09:41:12.011Z,11.43
2019-04-14T09:43:42.955Z,10.93
2019-04-14T09:46:13.472Z,10.70
2019-04-14T09:48:44.058Z,11.87
2019-04-14T09:51:15.000Z,12.50
2019-04-14T09:53:45.784Z,11.20
2019-04-14T09:56:16.604Z,12.67
2019-04-14T09:58:47.331Z,10.40
2019-04-14T10:01:18.479Z,12.50
2019-04-14T10:03:49.242Z,12.10
2019-04-14T10:06:19.805Z,11.00
2019-04-14T10:08:50.730Z,11.77
2019-04-14T10:11:21.299Z,11.57
2019-04-14T10:13:51.888Z,12.83
2019-04-14T10:16:22.483Z,13.27
2019-04-14T10:18:52.966Z,11.70
2019-04-14T10:21:23.455Z,11.67
2019-04-14T10:23:54.158Z,13.40
2019-04-14T10:26:24.813Z,11.80
2019-04-14T10:28:55.255Z,11.90
2019-04-14T10:31:25.847Z,12.47
2019-04-14T10:33:56.378Z,12.70
2019-04-14T10:36:26.886Z,12.03
2019-04-14T10:38:57.413Z,11.73
2019-04-14T10:41:27.969Z,11.50
2019-04-14T10:43:58.606Z,11.17
2019-04-14T10:46:29.243Z,12.13
2019-04-14T10:48:59.935Z,10.43
2019-04-14T10:51:33.849Z,11.60
2019-04-14T10:54:02.659Z,12.33
2019-04-14T10:56:33.241Z,13.60
2019-04-14T10:59:03.885Z,12.10
2019-04-14T11:01:34.889Z,12.47
2019-04-14T11:04:08.004Z,11.53
2019-04-14T11:06:41.519Z,11.93
2019-04-14T11:09:15.222Z,11.87
2019-04-14T11:11:46.585Z,12.00
2019-04-14T11:14:17.025Z,11.93
2019-04-14T11:16:47.505Z,11.70
2019-04-14T11:19:18.162Z,11.70
2019-04-14T11:21:48.690Z,12.50
2019-04-14T11:24:19.179Z,11.20
2019-04-14T11:26:49.736Z,12.10
2019-04-14T11:29:20.439Z,12.07
2019-04-14T11:32:11.488Z,12.97
2019-04-14T11:35:06.889Z,12.90
2019-04-14T11:38:02.102Z,12.80
2019-04-14T11:40:36.408Z,12.87
2019-04-14T11:43:07.142Z,11.63
2019-04-14T11:45:39.001Z,13.03
2019-04-14T11:48:09.566Z,11.80
2019-04-14T11:50:40.091Z,12.33
2019-04-14T11:53:12.245Z,11.37
2019-04-14T11:55:42.705Z,11.23
2019-04-14T11:58:13.178Z,11.43
2019-04-14T12:01:02.316Z,11.63
2019-04-14T12:03:43.931Z,11.20
2019-04-14T12:06:42.475Z,11.10
2019-04-14T12:09:40.948Z,11.20
2019-04-14T12:12:11.652Z,11.87
2019-04-14T12:14:42.375Z,11.47
2019-04-14T12:17:12.976Z,11.60
2019-04-14T12:19:43.715Z,10.17
2019-04-14T12:22:14.454Z,12.00
2019-04-14T12:24:45.087Z,9.80
2019-04-14T12:27:15.709Z,11.67
2019-04-14T12:29:47.946Z,11.47
2019-04-14T12:32:19.822Z,10.50
2019-04-14T12:34:50.884Z,10.90
2019-04-14T12:37:21.713Z,11.10
2019-04-14T12:39:52.423Z,10.07
2019-04-14T12:42:54.395Z,10.37
2019-04-14T12:45:52.699Z,10.13
2019-04-14T12:48:39.813Z,10.23
2019-04-14T12:51:20.505Z,9.70
2019-04-14T12:53:51.468Z,11.10
2019-04-14T12:56:25.720Z,11.00
2019-04-14T12:59:18.215Z,11.40
2019-04-14T13:01:56.306Z,10.63
2019-04-14T13:04:27.096Z,10.90
2019-04-14T13:06:58.115Z,9.67
2019-04-14T13:09:28.812Z,10.33
2019-04-14T13:11:59.568Z,9.87
2019-04-14T13:14:30.080Z,11.87
2019-04-14T13:17:00.575Z,10.13
2019-04-14T13:19:31.136Z,10.00
2019-04-14T13:22:01.736Z,10.33
2019-04-14T13:24:32.802Z,11.13
2019-04-14T13:27:03.398Z,10.20
2019-04-14T13:29:36.871Z,10.13
2019-04-14T13:32:07.670Z,10.73
2019-04-14T13:34:38.718Z,11.73
2019-04-14T13:37:09.150Z,9.20
2019-04-14T13:39:39.648Z,10.50
2019-04-14T13:42:10.298Z,9.90
2019-04-14T13:44:40.828Z,10.60
2019-04-14T13:47:11.374Z,10.90
2019-04-14T13:49:42.149Z,10.07
2019-04-14T13:52:12.730Z,11.40
2019-04-14T13:54:43.247Z,11.33
2019-04-14T13:57:13.779Z,11.57
2019-04-14T13:59:44.277Z,9.67
2019-04-14T14:02:14.760Z,10.87
2019-04-14T14:04:45.277Z,10.20
2019-04-14T14:07:15.734Z,10.07
2019-04-14T14:09:46.241Z,12.33
2019-04-14T14:12:33.990Z,10.67
2019-04-14T14:15:32.617Z,9.90
2019-04-14T14:18:34.096Z,10.30
2019-04-14T14:21:23.570Z,10.37
2019-04-14T14:24:01.045Z,10.00
2019-04-14T14:26:32.862Z,9.57
2019-04-14T14:29:03.348Z,9.80
2019-04-14T14:31:33.972Z,11.13
2019-04-14T14:34:04.779Z,10.40
2019-04-14T14:36:35.245Z,10.90
2019-04-14T14:39:08.803Z,11.07
2019-04-14T14:41:39.466Z,9.80
2019-04-14T14:44:09.994Z,10.57
2019-04-14T14:47:02.179Z,12.80
2019-04-14T14:49:51.555Z,12.37
2019-04-14T14:52:22.840Z,10.53
2019-04-14T14:54:53.326Z,11.93
2019-04-14T14:57:24.169Z,9.97
2019-04-14T14:59:55.728Z,11.27
2019-04-14T15:02:26.479Z,11.47
2019-04-14T15:04:57.007Z,10.53
2019-04-14T15:07:27.545Z,10.77
2019-04-14T15:09:58.020Z,11.10
2019-04-14T15:12:28.868Z,10.43
2019-04-14T15:14:59.346Z,9.60
2019-04-14T15:17:30.032Z,10.17
2019-04-14T15:20:00.738Z,9.23
2019-04-14T15:22:31.226Z,10.27
2019-04-14T15:25:01.982Z,9.63
2019-04-14T15:27:32.695Z,10.70
2019-04-14T15:30:04.150Z,13.20
2019-04-14T15:32:34.687Z,10.70
2019-04-14T15:35:05.493Z,9.60
2019-04-14T15:37:36.243Z,9.73
2019-04-14T15:40:07.819Z,9.47
2019-04-14T15:42:38.487Z,9.80
2019-04-14T15:45:10.159Z,9.60
2019-04-14T15:47:40.894Z,9.93
2019-04-14T15:50:11.523Z,9.60
2019-04-14T15:52:42.080Z,9.97
2019-04-14T15:55:14.994Z,7.73
2019-04-14T15:57:57.396Z,9.37
2019-04-14T16:00:47.050Z,9.77
2019-04-14T16:03:36.576Z,8.30
2019-04-14T16:06:28.703Z,7.53
2019-04-14T16:09:18.022Z,7.63
2019-04-14T16:11:57.110Z,8.10
2019-04-14T16:15:05.037Z,6.90
2019-04-14T16:17:57.487Z,6.77
2019-04-14T16:20:33.165Z,6.83
2019-04-14T16:23:03.682Z,6.30
2019-04-14T16:25:59.224Z,6.33
2019-04-14T16:28:37.974Z,5.23
2019-04-14T16:31:34.007Z,6.13
2019-04-14T16:34:26.386Z,6.17
2019-04-14T16:36:57.657Z,5.07
2019-04-14T16:39:28.239Z,6.20
2019-04-14T16:41:58.754Z,5.40
2019-04-14T16:44:29.400Z,6.53
2019-04-14T16:47:00.004Z,6.20
2019-04-14T16:49:30.525Z,6.93
2019-04-14T16:52:06.317Z,6.73
2019-04-14T16:54:58.777Z,6.57
2019-04-14T16:57:48.376Z,6.97
2019-04-14T17:00:28.858Z,6.10
2019-04-14T17:02:59.517Z,6.93
2019-04-14T17:05:30.157Z,7.30
2019-04-14T17:08:00.891Z,7.07
2019-04-14T17:10:31.403Z,7.77
2019-04-14T17:13:02.068Z,6.20
2019-04-14T17:16:03.542Z,6.50
2019-04-14T17:18:47.902Z,7.20
2019-04-14T17:21:36.233Z,10.30
2019-04-14T17:24:24.539Z,7.17
2019-04-14T17:27:17.004Z,8.50
2019-04-14T17:30:06.603Z,9.70
2019-04-14T17:32:58.189Z,8.20
2019-04-14T17:35:40.351Z,8.23
2019-04-14T17:38:16.653Z,9.13
2019-04-14T17:41:02.464Z,9.20
2019-04-14T17:43:43.921Z,9.10
2019-04-14T17:46:33.649Z,9.20
2019-04-14T17:49:20.625Z,9.73
2019-04-14T17:52:10.315Z,10.50
2019-04-14T17:55:02.975Z,9.00
2019-04-14T17:57:49.815Z,10.03
2019-04-14T18:00:25.747Z,9.77
2019-04-14T18:03:02.380Z,9.63
2019-04-14T18:05:45.327Z,9.77
2019-04-14T18:08:32.722Z,9.10
2019-04-14T18:11:08.702Z,9.73
2019-04-14T18:13:59.369Z,9.63
2019-04-14T18:16:34.808Z,9.30
2019-04-14T18:19:12.539Z,9.67
2019-04-14T18:21:44.391Z,9.03
2019-04-14T18:24:15.211Z,9.60
2019-04-14T18:26:45.756Z,9.83
2019-04-14T18:29:44.652Z,8.60
2019-04-14T18:32:37.292Z,9.30
2019-04-14T18:35:14.647Z,9.37
2019-04-14T18:38:06.988Z,9.60
2019-04-14T18:40:49.646Z,9.10
2019-04-14T18:43:48.535Z,8.70
2019-04-14T18:46:29.685Z,9.30
2019-04-14T18:49:05.759Z,9.40
2019-04-14T18:51:40.887Z,9.37
2019-04-14T18:54:39.605Z,9.10
2019-04-14T18:57:14.766Z,9.13
2019-04-14T19:00:10.632Z,9.17
2019-04-14T19:02:41.215Z,9.50
2019-04-14T19:05:11.984Z,9.50
2019-04-14T19:07:42.569Z,8.50
2019-04-14T19:10:13.701Z,8.30
2019-04-14T19:12:56.251Z,8.93
2019-04-14T19:15:46.331Z,10.07
2019-04-14T19:18:38.429Z,9.80
2019-04-14T19:21:12.001Z,9.60
2019-04-14T19:23:42.589Z,8.90
2019-04-14T19:26:13.184Z,9.30
2019-04-14T19:28:43.677Z,10.40
2019-04-14T19:31:14.802Z,9.90
2019-04-14T19:33:45.727Z,11.03
2019-04-14T19:36:16.264Z,11.37
2019-04-14T19:38:46.934Z,9.80
2019-04-14T19:41:17.658Z,10.33
2019-04-14T19:43:48.121Z,9.27
2019-04-14T19:46:19.058Z,11.37
2019-04-14T19:48:49.701Z,9.90
2019-04-14T19:51:20.215Z,10.53
2019-04-14T19:53:51.000Z,9.33
2019-04-14T19:56:21.639Z,9.70
2019-04-14T19:58:52.210Z,9.27
2019-04-14T20:01:22.889Z,9.40
2019-04-14T20:03:54.200Z,10.00
2019-04-14T20:06:25.761Z,9.37
2019-04-14T20:08:56.441Z,8.80
2019-04-14T20:11:27.323Z,9.10
2019-04-14T20:13:58.043Z,10.00
2019-04-14T20:16:59.722Z,9.50
2019-04-14T20:19:46.641Z,9.87
2019-04-14T20:22:36.136Z,8.93
2019-04-14T20:25:18.589Z,8.90
2019-04-14T20:27:54.169Z,8.97
2019-04-14T20:30:35.234Z,8.50
2019-04-14T20:33:05.948Z,8.37
2019-04-14T20:35:37.024Z,8.63
2019-04-14T20:38:07.569Z,7.43
2019-04-14T20:40:38.095Z,8.27
2019-04-14T20:43:08.979Z,7.30
2019-04-14T20:45:39.527Z,7.50
2019-04-14T20:48:10.193Z,7.17
2019-04-14T20:50:40.867Z,7.93
2019-04-14T20:53:11.458Z,7.17
2019-04-14T20:55:47.405Z,6.70
2019-04-14T20:58:14.742Z,6.77
2019-04-14T21:00:45.250Z,8.07
2019-04-14T21:03:32.786Z,7.37
2019-04-14T21:06:27.984Z,7.30
2019-04-14T21:09:26.961Z,6.50
2019-04-14T21:12:22.392Z,6.00
2019-04-14T21:15:09.875Z,6.80
2019-04-14T21:17:54.102Z,6.50
2019-04-14T21:20:35.201Z,6.67
2019-04-14T21:23:20.130Z,6.63
2019-04-14T21:26:00.693Z,6.10
2019-04-14T21:28:47.768Z,6.70
2019-04-14T21:31:30.564Z,5.37
2019-04-14T21:34:14.876Z,6.30
2019-04-14T21:37:09.349Z,6.40
2019-04-14T21:39:58.820Z,5.67
2019-04-14T21:42:29.372Z,6.50
2019-04-14T21:45:00.361Z,6.17
2019-04-14T21:47:30.950Z,6.30
2019-04-14T21:50:01.842Z,5.60
2019-04-14T21:52:44.283Z,5.63
2019-04-14T21:55:15.662Z,6.33
2019-04-14T21:58:20.368Z,6.40
2019-04-14T22:01:53.398Z,5.80
2019-04-14T22:04:42.652Z,5.27
2019-04-14T22:07:41.090Z,5.20
2019-04-14T22:10:23.017Z,5.30
2019-04-14T22:12:53.449Z,6.40
2019-04-14T22:15:24.529Z,6.03
2019-04-14T22:17:55.804Z,5.97
2019-04-14T22:20:26.311Z,6.10
2019-04-14T22:22:56.978Z,5.87
2019-04-14T22:25:27.399Z,5.43
2019-04-14T22:27:57.910Z,5.90
2019-04-14T22:30:28.401Z,6.03
2019-04-14T22:32:59.051Z,5.50
2019-04-14T22:35:29.533Z,5.20
2019-04-14T22:38:00.008Z,5.20
2019-04-14T22:40:30.415Z,5.47
2019-04-14T22:43:05.159Z,5.47
2019-04-14T22:45:36.019Z,4.67
2019-04-14T22:48:06.600Z,4.73
2019-04-14T22:50:37.016Z,5.87
2019-04-14T22:53:07.531Z,4.97
2019-04-14T22:55:38.017Z,5.00
2019-04-14T22:58:08.552Z,4.50
2019-04-14T23:00:50.010Z,5.20
2019-04-14T23:03:39.047Z,4.67
2019-04-14T23:06:32.075Z,4.67
2019-04-14T23:09:21.954Z,4.73
2019-04-14T23:12:09.925Z,5.57
2019-04-14T23:15:02.287Z,5.20
2019-04-14T23:17:53.868Z,5.07
2019-04-14T23:20:27.564Z,4.90
2019-04-14T23:23:03.740Z,6.30
2019-04-14T23:25:36.187Z,5.40
2019-04-14T23:28:06.684Z,4.40
2019-04-14T23:30:37.124Z,4.97
2019-04-14T23:33:07.587Z,5.40
2019-04-14T23:35:38.036Z,5.17
2019-04-14T23:38:08.511Z,4.03
2019-04-14T23:40:38.981Z,4.30
2019-04-14T23:43:09.517Z,5.20
2019-04-14T23:45:39.997Z,5.30
2019-04-14T23:48:10.481Z,5.20
2019-04-14T23:50:40.877Z,4.20
2019-04-14T23:53:11.380Z,4.47
2019-04-14T23:55:41.907Z,4.30
2019-04-14T23:58:12.439Z,4.87
